Time;durP1;ratioP1;P1;durP2;ratioP2;P2;SDS_P1;SDS_P2;PMS_P1;PMS_P2;Temp;Humidity;BMP_temperature;BMP_pressure;BME280_temperature;BME280_humidity;BME280_pressure;Samples;Min_cycle;Max_cycle;Signal;HPM_P1;HPM_P2
2022/09/25 00:01:06;;;;;;;9.53;4.10;;;;;;;;;;4962697;28;20444;-72
2022/09/25 00:03:32;;;;;;;7.57;3.60;;;;;;;;;;4974074;28;20238;-72
2022/09/25 00:06:01;;;;;;;6.90;3.83;;;;;;;;;;4973048;28;20233;-71
2022/09/25 00:08:26;;;;;;;7.47;3.33;;;;;;;;;;4977814;28;20180;-72
2022/09/25 00:10:51;;;;;;;7.43;3.60;;;;;;;;;;4973488;28;20700;-70
2022/09/25 00:13:18;;;;;;;6.93;3.50;;;;;;;;;;4977854;28;20239;-73
2022/09/25 00:15:48;;;;;;;6.93;3.40;;;;;;;;;;4962034;28;20173;-72
2022/09/25 00:18:13;;;;;;;7.23;3.53;;;;;;;;;;4975218;28;20184;-72
2022/09/25 00:20:38;;;;;;;8.87;3.77;;;;;;;;;;4983014;28;20217;-71
2022/09/25 00:23:03;;;;;;;5.83;3.60;;;;;;;;;;4974437;28;20207;-72
2022/09/25 00:25:29;;;;;;;6.00;3.33;;;;;;;;;;4976657;28;20189;-72
2022/09/25 00:27:54;;;;;;;8.50;3.70;;;;;;;;;;4982069;28;20181;-73
2022/09/25 00:30:20;;;;;;;6.67;3.67;;;;;;;;;;4969464;28;20292;-72
2022/09/25 00:32:45;;;;;;;9.53;3.33;;;;;;;;;;4979736;28;20646;-72
2022/09/25 00:35:10;;;;;;;6.97;4.00;;;;;;;;;;4977780;28;20180;-72
2022/09/25 00:37:36;;;;;;;7.37;3.80;;;;;;;;;;4982616;28;20224;-72
2022/09/25 00:40:02;;;;;;;5.23;3.63;;;;;;;;;;4973262;28;20220;-72
2022/09/25 00:42:27;;;;;;;5.43;3.73;;;;;;;;;;4971096;28;20188;-72
2022/09/25 00:44:57;;;;;;;7.53;3.67;;;;;;;;;;4972866;28;20249;-70
2022/09/25 00:47:31;;;;;;;12.03;3.80;;;;;;;;;;4978621;28;20183;-73
2022/09/25 00:49:58;;;;;;;7.00;3.67;;;;;;;;;;4970754;28;20204;-72
2022/09/25 00:52:24;;;;;;;8.20;3.80;;;;;;;;;;4972155;28;20295;-72
2022/09/25 00:54:51;;;;;;;10.40;5.83;;;;;;;;;;4970978;28;20674;-73
2022/09/25 00:57:19;;;;;;;10.03;5.10;;;;;;;;;;4971552;28;20176;-72
2022/09/25 00:59:51;;;;;;;4.67;3.50;;;;;;;;;;4970592;28;20208;-70
2022/09/25 01:02:19;;;;;;;6.13;4.33;;;;;;;;;;4972156;28;20243;-73
2022/09/25 01:04:45;;;;;;;5.83;3.57;;;;;;;;;;4976992;28;20191;-72
2022/09/25 01:07:11;;;;;;;10.33;4.00;;;;;;;;;;4968008;28;20188;-73
2022/09/25 01:09:36;;;;;;;6.40;4.00;;;;;;;;;;4971787;28;20290;-73
2022/09/25 01:12:02;;;;;;;8.17;4.57;;;;;;;;;;4971949;28;20169;-72
2022/09/25 01:14:27;;;;;;;8.97;4.43;;;;;;;;;;4971016;28;20639;-72
2022/09/25 01:16:53;;;;;;;4.57;3.67;;;;;;;;;;4973103;28;20211;-70
2022/09/25 01:19:57;;;;;;;5.83;3.90;;;;;;;;;;4973291;28;20208;-72
2022/09/25 01:22:22;;;;;;;4.97;3.37;;;;;;;;;;4925009;29;20655;-72
2022/09/25 01:24:59;;;;;;;7.03;4.27;;;;;;;;;;4929000;29;20182;-72
2022/09/25 01:27:42;;;;;;;9.90;5.07;;;;;;;;;;4954691;28;20603;-72
2022/09/25 01:30:08;;;;;;;8.83;6.30;;;;;;;;;;4969911;28;20752;-70
2022/09/25 01:32:40;;;;;;;19.40;11.63;;;;;;;;;;4973043;28;20189;-72
2022/09/25 01:35:24;;;;;;;18.30;14.63;;;;;;;;;;4968188;28;20243;-70
2022/09/25 01:37:55;;;;;;;19.93;13.60;;;;;;;;;;4977044;28;20180;-70
2022/09/25 01:40:23;;;;;;;21.27;12.97;;;;;;;;;;4979672;28;20208;-72
2022/09/25 01:42:59;;;;;;;17.30;12.17;;;;;;;;;;4969784;28;20184;-73
2022/09/25 01:45:31;;;;;;;18.33;10.30;;;;;;;;;;4978211;28;20186;-72
2022/09/25 01:47:58;;;;;;;12.90;8.40;;;;;;;;;;4975461;28;20211;-70
2022/09/25 01:50:33;;;;;;;15.60;7.93;;;;;;;;;;4973277;28;20266;-72
2022/09/25 01:53:01;;;;;;;12.67;6.80;;;;;;;;;;4970943;28;20681;-72
2022/09/25 01:55:39;;;;;;;8.03;6.33;;;;;;;;;;4969023;28;20177;-69
2022/09/25 01:58:22;;;;;;;9.53;5.93;;;;;;;;;;4979036;28;20183;-73
2022/09/25 02:00:50;;;;;;;13.60;6.23;;;;;;;;;;4977707;28;20698;-70
2022/09/25 02:03:21;;;;;;;8.13;5.57;;;;;;;;;;4972597;28;20180;-72
2022/09/25 02:05:52;;;;;;;10.63;6.50;;;;;;;;;;4971066;28;20236;-72
2022/09/25 02:08:20;;;;;;;7.10;5.13;;;;;;;;;;4973050;28;20199;-71
2022/09/25 02:10:50;;;;;;;9.47;5.07;;;;;;;;;;4971402;28;20206;-72
2022/09/25 02:13:16;;;;;;;9.60;5.40;;;;;;;;;;4972003;28;20181;-72
2022/09/25 02:15:48;;;;;;;7.93;4.67;;;;;;;;;;4975241;28;20258;-72
2022/09/25 02:21:11;;;;;;;6.37;4.20;;;;;;;;;;4965765;28;20199;-72
2022/09/25 02:23:50;;;;;;;7.90;3.93;;;;;;;;;;4970586;28;20254;-72
2022/09/25 02:26:21;;;;;;;9.00;4.37;;;;;;;;;;4967080;28;20211;-72
2022/09/25 02:28:46;;;;;;;7.23;5.40;;;;;;;;;;4966886;28;20200;-71
2022/09/25 02:31:12;;;;;;;6.77;4.30;;;;;;;;;;4966371;28;20258;-72
2022/09/25 02:33:37;;;;;;;6.87;4.67;;;;;;;;;;4970620;28;20191;-72
2022/09/25 02:36:03;;;;;;;7.57;5.20;;;;;;;;;;4968607;28;20177;-70
2022/09/25 02:38:31;;;;;;;7.60;4.60;;;;;;;;;;4971433;28;20180;-70
2022/09/25 02:41:03;;;;;;;8.07;3.77;;;;;;;;;;4968173;28;20614;-72
2022/09/25 02:43:40;;;;;;;7.47;4.27;;;;;;;;;;4971291;28;20658;-72
2022/09/25 02:46:17;;;;;;;8.40;4.80;;;;;;;;;;4970396;28;20223;-73
2022/09/25 02:48:42;;;;;;;7.80;4.30;;;;;;;;;;4971186;28;20203;-72
2022/09/25 02:51:21;;;;;;;7.77;5.03;;;;;;;;;;4971219;28;20204;-72
2022/09/25 02:53:50;;;;;;;7.10;4.57;;;;;;;;;;4968714;28;20176;-70
2022/09/25 02:56:15;;;;;;;5.67;3.93;;;;;;;;;;4972437;28;20185;-72
2022/09/25 02:58:43;;;;;;;5.63;4.07;;;;;;;;;;4969415;28;20317;-70
2022/09/25 03:01:10;;;;;;;7.87;4.53;;;;;;;;;;4970529;28;20200;-70
2022/09/25 03:03:37;;;;;;;9.27;5.83;;;;;;;;;;4970785;28;20173;-70
2022/09/25 03:06:02;;;;;;;6.10;4.20;;;;;;;;;;4969547;28;20203;-70
2022/09/25 03:08:37;;;;;;;7.87;4.20;;;;;;;;;;4971141;28;20654;-70
2022/09/25 03:11:09;;;;;;;5.23;3.97;;;;;;;;;;4968956;28;20239;-70
2022/09/25 03:13:34;;;;;;;8.23;4.27;;;;;;;;;;4971705;28;20263;-71
2022/09/25 03:16:03;;;;;;;6.13;4.77;;;;;;;;;;4970741;28;20264;-72
2022/09/25 03:18:31;;;;;;;9.60;5.33;;;;;;;;;;4970493;28;20186;-74
2022/09/25 03:20:57;;;;;;;7.57;4.30;;;;;;;;;;4973786;28;20312;-72
2022/09/25 03:23:22;;;;;;;8.27;4.87;;;;;;;;;;4974780;28;20222;-71
2022/09/25 03:25:48;;;;;;;7.37;4.37;;;;;;;;;;4973274;28;20566;-71
2022/09/25 03:28:13;;;;;;;8.70;5.20;;;;;;;;;;4969122;28;20192;-72
2022/09/25 03:30:39;;;;;;;6.57;4.50;;;;;;;;;;4973412;28;20212;-71
2022/09/25 03:33:05;;;;;;;9.13;5.00;;;;;;;;;;4969769;28;20259;-72
2022/09/25 03:35:30;;;;;;;10.03;4.87;;;;;;;;;;4972304;28;20683;-72
2022/09/25 03:37:57;;;;;;;8.37;4.70;;;;;;;;;;4972640;28;20183;-71
2022/09/25 03:40:22;;;;;;;6.13;4.37;;;;;;;;;;4972377;28;20287;-71
2022/09/25 03:42:47;;;;;;;8.07;4.90;;;;;;;;;;4972104;28;20319;-70
2022/09/25 03:45:12;;;;;;;8.60;4.83;;;;;;;;;;4973276;28;20267;-71
2022/09/25 03:47:37;;;;;;;10.13;4.97;;;;;;;;;;4973934;28;20172;-71
2022/09/25 03:50:03;;;;;;;7.67;5.23;;;;;;;;;;4974288;28;20559;-71
2022/09/25 03:52:28;;;;;;;6.77;4.47;;;;;;;;;;4973662;28;20292;-72
2022/09/25 03:54:53;;;;;;;10.10;5.00;;;;;;;;;;4974119;28;20188;-72
2022/09/25 03:57:18;;;;;;;9.40;5.17;;;;;;;;;;4974035;28;20173;-70
2022/09/25 03:59:43;;;;;;;9.30;5.10;;;;;;;;;;4973821;28;20196;-70
2022/09/25 04:02:09;;;;;;;6.27;4.73;;;;;;;;;;4972891;28;20711;-73
2022/09/25 04:04:36;;;;;;;10.00;4.77;;;;;;;;;;4973043;28;20199;-72
2022/09/25 04:07:01;;;;;;;8.40;4.73;;;;;;;;;;4973817;28;20184;-72
2022/09/25 04:09:26;;;;;;;9.77;5.20;;;;;;;;;;4973557;28;20259;-72
2022/09/25 04:11:53;;;;;;;9.83;5.23;;;;;;;;;;4971336;28;20191;-72
2022/09/25 04:14:19;;;;;;;7.27;4.70;;;;;;;;;;4971726;28;20187;-72
2022/09/25 04:16:44;;;;;;;6.53;4.83;;;;;;;;;;4973260;28;20559;-69
2022/09/25 04:19:09;;;;;;;6.43;4.80;;;;;;;;;;4964669;28;20193;-73
2022/09/25 04:21:35;;;;;;;9.10;4.73;;;;;;;;;;4972024;28;20195;-70
2022/09/25 04:26:45;;;;;;;7.57;3.87;;;;;;;;;;4973756;28;20187;-71
2022/09/25 04:29:11;;;;;;;9.00;4.90;;;;;;;;;;4970722;28;20262;-71
2022/09/25 04:31:37;;;;;;;5.57;3.90;;;;;;;;;;4969689;28;20208;-71
2022/09/25 04:34:02;;;;;;;9.97;4.10;;;;;;;;;;4972622;28;20180;-71
2022/09/25 04:36:28;;;;;;;7.00;4.00;;;;;;;;;;4973018;28;20191;-71
2022/09/25 04:38:53;;;;;;;5.70;4.30;;;;;;;;;;4970932;28;20706;-71
2022/09/25 04:41:18;;;;;;;8.43;4.13;;;;;;;;;;4974001;28;20207;-71
2022/09/25 04:43:44;;;;;;;8.23;5.83;;;;;;;;;;4971503;28;20521;-71
2022/09/25 04:46:10;;;;;;;6.20;4.50;;;;;;;;;;4972826;28;20192;-71
2022/09/25 04:48:35;;;;;;;5.23;3.80;;;;;;;;;;4971047;28;20690;-70
2022/09/25 04:51:00;;;;;;;8.60;4.57;;;;;;;;;;4970474;28;20215;-71
2022/09/25 04:53:26;;;;;;;7.90;4.30;;;;;;;;;;4971893;28;20704;-71
2022/09/25 04:55:53;;;;;;;9.40;4.83;;;;;;;;;;4971592;28;20178;-70
2022/09/25 04:58:18;;;;;;;6.90;4.57;;;;;;;;;;4970334;28;20200;-73
2022/09/25 05:00:44;;;;;;;7.17;4.63;;;;;;;;;;4969563;28;20261;-72
2022/09/25 05:03:09;;;;;;;7.37;4.13;;;;;;;;;;4973574;28;20191;-72
2022/09/25 05:05:34;;;;;;;5.67;4.70;;;;;;;;;;4971367;28;20196;-72
2022/09/25 05:08:00;;;;;;;8.13;4.40;;;;;;;;;;4969541;28;20231;-70
2022/09/25 05:10:38;;;;;;;9.73;4.43;;;;;;;;;;4971177;28;20264;-72
2022/09/25 05:13:04;;;;;;;8.30;4.70;;;;;;;;;;4970005;28;20552;-70
2022/09/25 05:15:30;;;;;;;6.83;4.30;;;;;;;;;;4970122;28;20238;-72
2022/09/25 05:17:59;;;;;;;10.10;3.77;;;;;;;;;;4967763;28;20312;-72
2022/09/25 05:20:25;;;;;;;5.40;3.97;;;;;;;;;;4972498;28;20717;-70
2022/09/25 05:22:53;;;;;;;4.30;3.33;;;;;;;;;;4973255;28;20275;-70
2022/09/25 05:25:18;;;;;;;8.57;4.60;;;;;;;;;;4969504;28;20212;-71
2022/09/25 05:27:44;;;;;;;8.67;4.73;;;;;;;;;;4969361;28;20181;-71
2022/09/25 05:30:10;;;;;;;8.60;4.83;;;;;;;;;;4968771;28;20307;-70
2022/09/25 05:32:35;;;;;;;6.40;4.30;;;;;;;;;;4971241;28;20195;-72
2022/09/25 05:35:00;;;;;;;8.57;5.50;;;;;;;;;;4968992;28;20267;-72
2022/09/25 05:37:25;;;;;;;9.33;4.67;;;;;;;;;;4977426;28;20182;-72
2022/09/25 05:39:51;;;;;;;6.87;5.07;;;;;;;;;;4968185;28;20227;-71
2022/09/25 05:42:18;;;;;;;11.47;4.77;;;;;;;;;;4963356;28;20185;-71
2022/09/25 05:44:43;;;;;;;8.37;4.73;;;;;;;;;;4966141;28;20278;-71
2022/09/25 05:47:08;;;;;;;6.70;5.00;;;;;;;;;;4967261;28;20623;-72
2022/09/25 05:49:33;;;;;;;8.43;5.53;;;;;;;;;;4970608;28;20212;-70
2022/09/25 05:51:58;;;;;;;8.17;5.67;;;;;;;;;;4964440;28;20663;-73
2022/09/25 05:54:24;;;;;;;8.27;5.30;;;;;;;;;;4969800;28;20184;-73
2022/09/25 05:56:49;;;;;;;11.30;5.77;;;;;;;;;;4971426;28;20168;-73
2022/09/25 05:59:14;;;;;;;8.73;5.17;;;;;;;;;;4970912;28;20212;-73
2022/09/25 06:01:40;;;;;;;8.20;5.53;;;;;;;;;;4967748;28;20263;-73
2022/09/25 06:04:05;;;;;;;8.87;5.70;;;;;;;;;;4973369;28;20535;-73
2022/09/25 06:06:30;;;;;;;9.80;5.97;;;;;;;;;;4967934;28;20192;-73
2022/09/25 06:08:55;;;;;;;9.37;5.17;;;;;;;;;;4973344;28;20231;-73
2022/09/25 06:11:21;;;;;;;6.63;5.73;;;;;;;;;;4970161;28;20674;-72
2022/09/25 06:13:47;;;;;;;7.63;4.83;;;;;;;;;;4968657;28;20185;-72
2022/09/25 06:16:14;;;;;;;7.60;5.53;;;;;;;;;;4966535;28;20582;-73
2022/09/25 06:18:39;;;;;;;10.77;5.70;;;;;;;;;;4969288;28;20678;-73
2022/09/25 06:21:05;;;;;;;8.70;6.10;;;;;;;;;;4969207;28;20200;-73
2022/09/25 06:23:30;;;;;;;9.00;6.03;;;;;;;;;;4969220;28;20201;-73
2022/09/25 06:26:02;;;;;;;11.20;6.17;;;;;;;;;;4967933;28;20246;-72
2022/09/25 06:28:28;;;;;;;11.13;6.10;;;;;;;;;;4969569;28;20214;-73
2022/09/25 06:30:54;;;;;;;9.17;6.30;;;;;;;;;;4970577;28;20200;-73
2022/09/25 06:33:19;;;;;;;9.93;7.07;;;;;;;;;;4969498;28;20180;-73
2022/09/25 06:35:45;;;;;;;7.97;5.90;;;;;;;;;;4966193;28;20182;-73
2022/09/25 06:38:11;;;;;;;10.97;6.20;;;;;;;;;;4965542;28;20173;-73
2022/09/25 06:40:39;;;;;;;11.20;6.37;;;;;;;;;;4969048;28;20306;-73
2022/09/25 06:43:04;;;;;;;9.03;5.67;;;;;;;;;;4971174;28;20645;-70
2022/09/25 06:45:32;;;;;;;13.73;6.43;;;;;;;;;;4968925;28;20187;-72
2022/09/25 06:48:01;;;;;;;10.38;5.72;;;;;;;;;;4969798;28;20584;-72
2022/09/25 06:50:30;;;;;;;6.28;4.38;;;;;;;;;;4972103;28;20215;-72
2022/09/25 06:52:55;;;;;;;7.40;4.70;;;;;;;;;;4969071;28;20225;-73
2022/09/25 06:55:21;;;;;;;6.05;4.10;;;;;;;;;;4972105;28;20176;-73
2022/09/25 06:57:46;;;;;;;6.13;4.45;;;;;;;;;;4972639;28;20188;-70
2022/09/25 07:00:11;;;;;;;6.55;4.15;;;;;;;;;;4969475;28;20200;-73
2022/09/25 07:05:21;;;;;;;15.68;4.53;;;;;;;;;;4966674;28;20199;-72
2022/09/25 07:07:46;;;;;;;6.00;3.60;;;;;;;;;;4973242;28;20184;-72
2022/09/25 07:10:11;;;;;;;3.97;2.60;;;;;;;;;;4972119;28;20212;-72
2022/09/25 07:12:38;;;;;;;5.13;2.90;;;;;;;;;;4972257;28;20275;-72
2022/09/25 07:15:04;;;;;;;6.65;3.20;;;;;;;;;;4968488;28;20183;-72
2022/09/25 07:17:29;;;;;;;5.15;4.63;;;;;;;;;;4973688;28;20177;-72
2022/09/25 07:19:54;;;;;;;3.95;2.20;;;;;;;;;;4973854;28;20212;-70
2022/09/25 07:22:19;;;;;;;4.10;2.33;;;;;;;;;;4973367;28;20654;-70
2022/09/25 07:24:45;;;;;;;4.40;2.20;;;;;;;;;;4974966;28;20184;-72
2022/09/25 07:27:10;;;;;;;4.68;2.17;;;;;;;;;;4971731;28;20260;-72
2022/09/25 07:29:35;;;;;;;2.42;1.50;;;;;;;;;;4972093;28;20204;-72
2022/09/25 07:32:00;;;;;;;4.45;1.88;;;;;;;;;;4969668;28;20180;-72
2022/09/25 07:34:26;;;;;;;4.45;2.20;;;;;;;;;;4970921;28;20189;-72
2022/09/25 07:36:53;;;;;;;2.67;2.00;;;;;;;;;;4968126;28;20169;-72
2022/09/25 07:39:18;;;;;;;5.25;2.05;;;;;;;;;;4973033;28;20191;-72
2022/09/25 07:41:44;;;;;;;3.38;1.67;;;;;;;;;;4983316;28;20183;-71
2022/09/25 07:44:09;;;;;;;2.80;1.60;;;;;;;;;;4976721;28;20230;-70
2022/09/25 07:46:34;;;;;;;3.85;1.77;;;;;;;;;;4974916;28;20673;-70
2022/09/25 07:48:59;;;;;;;3.80;1.65;;;;;;;;;;4978265;28;20198;-70
2022/09/25 07:51:25;;;;;;;6.72;1.92;;;;;;;;;;4974448;28;20208;-70
2022/09/25 07:53:51;;;;;;;3.78;2.05;;;;;;;;;;4977280;28;20666;-70
2022/09/25 07:56:19;;;;;;;6.88;2.67;;;;;;;;;;4975182;28;20185;-70
2022/09/25 07:58:44;;;;;;;3.00;1.63;;;;;;;;;;4975300;28;20665;-70
2022/09/25 08:01:11;;;;;;;2.70;1.85;;;;;;;;;;4971104;28;20187;-70
2022/09/25 08:03:36;;;;;;;4.38;1.48;;;;;;;;;;4973439;28;20219;-70
2022/09/25 08:06:03;;;;;;;4.18;1.70;;;;;;;;;;4973095;28;20180;-70
2022/09/25 08:08:29;;;;;;;2.25;1.25;;;;;;;;;;4973494;28;20192;-69
2022/09/25 08:11:01;;;;;;;3.30;1.50;;;;;;;;;;4971073;28;20415;-70
2022/09/25 08:13:27;;;;;;;4.03;1.63;;;;;;;;;;4971421;28;20243;-70
2022/09/25 08:15:52;;;;;;;5.07;1.67;;;;;;;;;;4973294;28;20176;-70
2022/09/25 08:18:17;;;;;;;3.72;1.27;;;;;;;;;;4973342;28;20188;-69
2022/09/25 08:20:43;;;;;;;3.88;1.55;;;;;;;;;;4973548;28;20303;-69
2022/09/25 08:23:08;;;;;;;4.25;0.80;;;;;;;;;;4972972;28;20258;-69
2022/09/25 08:25:33;;;;;;;2.65;1.13;;;;;;;;;;4973631;28;20188;-69
2022/09/25 08:27:59;;;;;;;3.80;1.05;;;;;;;;;;4969288;28;20223;-70
2022/09/25 08:30:24;;;;;;;3.47;0.68;;;;;;;;;;4970318;28;20200;-69
2022/09/25 08:32:51;;;;;;;2.10;0.63;;;;;;;;;;4972927;28;20188;-70
2022/09/25 08:35:16;;;;;;;12.85;2.13;;;;;;;;;;4970623;28;20172;-68
2022/09/25 08:37:41;;;;;;;4.15;0.80;;;;;;;;;;4966683;28;20588;-70
2022/09/25 08:40:17;;;;;;;3.85;0.80;;;;;;;;;;4971129;28;20204;-69
2022/09/25 08:42:44;;;;;;;4.22;1.02;;;;;;;;;;4970868;28;20242;-69
2022/09/25 08:50:43;;;;;;;3.78;0.80;;;;;;;;;;4975492;28;20207;-69
2022/09/25 08:53:15;;;;;;;2.78;0.65;;;;;;;;;;4974067;28;20751;-69
2022/09/25 08:58:27;;;;;;;1.42;0.63;;;;;;;;;;4968969;28;20179;-69
2022/09/25 09:00:53;;;;;;;3.35;0.60;;;;;;;;;;4970056;28;20264;-69
2022/09/25 09:03:19;;;;;;;3.65;0.80;;;;;;;;;;4969247;28;20267;-68
2022/09/25 09:05:45;;;;;;;4.00;0.70;;;;;;;;;;4972098;28;20275;-69
2022/09/25 09:08:13;;;;;;;3.15;0.80;;;;;;;;;;4974332;28;20626;-69
2022/09/25 09:10:48;;;;;;;3.17;0.77;;;;;;;;;;4971440;28;20287;-68
2022/09/25 09:13:14;;;;;;;2.67;1.10;;;;;;;;;;4972546;28;20208;-69
2022/09/25 09:15:42;;;;;;;3.42;0.90;;;;;;;;;;4972025;28;20231;-69
2022/09/25 09:18:19;;;;;;;3.50;1.13;;;;;;;;;;4967102;28;20208;-69
2022/09/25 09:20:49;;;;;;;3.25;0.88;;;;;;;;;;4974717;28;20219;-71
2022/09/25 09:23:16;;;;;;;2.83;0.75;;;;;;;;;;4974301;28;20609;-70
2022/09/25 09:25:51;;;;;;;5.20;1.48;;;;;;;;;;4976937;28;20584;-70
2022/09/25 09:28:22;;;;;;;2.03;0.88;;;;;;;;;;4971507;28;20176;-72
2022/09/25 09:30:56;;;;;;;5.07;1.00;;;;;;;;;;4970669;28;20235;-71
2022/09/25 09:33:26;;;;;;;4.28;1.08;;;;;;;;;;4974526;28;20251;-72
2022/09/25 09:36:07;;;;;;;3.15;0.70;;;;;;;;;;4972769;28;20640;-72
2022/09/25 09:38:43;;;;;;;2.78;0.60;;;;;;;;;;4969922;28;20177;-72
2022/09/25 09:41:14;;;;;;;3.42;0.73;;;;;;;;;;4972133;28;20190;-72
2022/09/25 09:43:44;;;;;;;4.57;0.90;;;;;;;;;;4969807;28;20176;-72
2022/09/25 09:46:18;;;;;;;5.22;0.80;;;;;;;;;;4971000;28;20279;-72
2022/09/25 09:48:50;;;;;;;4.53;1.10;;;;;;;;;;4969155;28;20744;-71
2022/09/25 09:51:22;;;;;;;2.75;0.70;;;;;;;;;;4972086;28;20208;-72
2022/09/25 09:53:51;;;;;;;3.28;0.70;;;;;;;;;;4962910;28;20604;-72
2022/09/25 09:56:18;;;;;;;3.42;0.77;;;;;;;;;;4969666;28;20654;-72
2022/09/25 09:58:47;;;;;;;4.85;1.50;;;;;;;;;;4964274;28;20287;-72
2022/09/25 10:01:13;;;;;;;4.35;0.73;;;;;;;;;;4971748;28;20175;-72
2022/09/25 10:03:40;;;;;;;5.05;1.08;;;;;;;;;;4970222;28;20195;-72
2022/09/25 10:06:10;;;;;;;2.70;0.93;;;;;;;;;;4971481;28;20231;-72
2022/09/25 10:08:35;;;;;;;2.15;0.85;;;;;;;;;;4968213;28;20245;-72
2022/09/25 10:11:03;;;;;;;1.48;0.77;;;;;;;;;;4973221;28;20685;-72
2022/09/25 10:13:35;;;;;;;2.65;1.00;;;;;;;;;;4970644;28;20218;-71
2022/09/25 10:16:11;;;;;;;2.70;0.88;;;;;;;;;;4968189;28;20180;-71
2022/09/25 10:18:45;;;;;;;2.65;0.98;;;;;;;;;;4967843;28;20196;-69
2022/09/25 10:21:17;;;;;;;2.85;0.65;;;;;;;;;;4968058;28;20648;-72
2022/09/25 10:23:45;;;;;;;1.25;0.60;;;;;;;;;;4965965;28;20183;-71
2022/09/25 10:26:28;;;;;;;3.38;0.50;;;;;;;;;;4966622;28;20243;-72
2022/09/25 10:28:58;;;;;;;2.53;0.60;;;;;;;;;;4964745;28;20195;-72
2022/09/25 10:31:31;;;;;;;1.27;0.50;;;;;;;;;;4969967;28;20925;-71
2022/09/25 10:34:04;;;;;;;2.25;0.70;;;;;;;;;;4977156;28;20186;-71
2022/09/25 10:36:41;;;;;;;1.30;0.38;;;;;;;;;;4977346;28;20182;-71
2022/09/25 10:39:25;;;;;;;2.40;1.08;;;;;;;;;;4967061;28;20212;-72
2022/09/25 10:41:51;;;;;;;4.65;1.30;;;;;;;;;;4977041;28;20279;-73
2022/09/25 10:44:27;;;;;;;6.82;1.35;;;;;;;;;;4971915;28;20575;-71
2022/09/25 10:52:43;;;;;;;1.63;0.20;;;;;;;;;;4968333;28;20190;-72
2022/09/25 10:55:15;;;;;;;1.17;0.50;;;;;;;;;;4969341;28;20336;-71
2022/09/25 10:57:41;;;;;;;1.35;0.30;;;;;;;;;;4970842;28;20177;-72
2022/09/25 11:00:18;;;;;;;1.63;0.40;;;;;;;;;;4968723;28;20255;-71
2022/09/25 11:02:45;;;;;;;2.53;0.60;;;;;;;;;;4968695;28;20302;-72
2022/09/25 11:05:17;;;;;;;1.08;0.40;;;;;;;;;;4969508;28;20274;-72
2022/09/25 11:07:53;;;;;;;0.73;0.40;;;;;;;;;;4965996;28;20220;-71
2022/09/25 11:10:20;;;;;;;1.90;0.40;;;;;;;;;;4971980;28;20238;-71
2022/09/25 11:12:46;;;;;;;1.65;0.43;;;;;;;;;;4966875;28;20183;-71
2022/09/25 11:15:15;;;;;;;2.17;0.57;;;;;;;;;;4971778;28;20670;-71
2022/09/25 11:17:42;;;;;;;3.00;0.50;;;;;;;;;;4970711;28;20227;-71
2022/09/25 11:20:29;;;;;;;2.63;0.55;;;;;;;;;;4974290;28;20220;-71
2022/09/25 11:22:54;;;;;;;2.53;0.60;;;;;;;;;;4968242;28;20186;-71
2022/09/25 11:25:20;;;;;;;1.83;0.40;;;;;;;;;;4981927;28;20254;-72
2022/09/25 11:27:48;;;;;;;4.25;0.70;;;;;;;;;;4974432;28;20426;-71
2022/09/25 11:30:17;;;;;;;2.70;0.63;;;;;;;;;;4969714;28;20295;-71
2022/09/25 11:32:48;;;;;;;1.13;0.45;;;;;;;;;;4974782;28;20184;-71
2022/09/25 11:35:18;;;;;;;1.40;0.50;;;;;;;;;;4973185;28;20181;-71
2022/09/25 11:37:46;;;;;;;3.05;0.52;;;;;;;;;;4972590;28;20594;-71
2022/09/25 11:43:06;;;;;;;2.00;0.60;;;;;;;;;;4970301;28;20189;-71
2022/09/25 11:45:38;;;;;;;2.75;0.50;;;;;;;;;;4971230;28;20207;-71
2022/09/25 11:48:20;;;;;;;3.42;0.70;;;;;;;;;;4972805;28;20613;-72
2022/09/25 11:50:58;;;;;;;2.38;0.40;;;;;;;;;;4981372;28;20207;-72
2022/09/25 11:53:39;;;;;;;1.63;0.30;;;;;;;;;;4964985;28;20178;-72
2022/09/25 11:56:05;;;;;;;1.30;0.93;;;;;;;;;;4971317;28;20180;-71
2022/09/25 11:58:31;;;;;;;2.75;0.50;;;;;;;;;;4969234;28;20172;-71
2022/09/25 12:01:02;;;;;;;0.88;0.35;;;;;;;;;;4971517;28;20177;-71
2022/09/25 12:03:43;;;;;;;1.85;0.50;;;;;;;;;;4972600;28;20920;-72
2022/09/25 12:06:24;;;;;;;0.40;0.20;;;;;;;;;;4972557;28;20194;-71
2022/09/25 12:09:01;;;;;;;1.98;0.40;;;;;;;;;;4970110;28;20271;-71
2022/09/25 12:11:36;;;;;;;2.63;0.45;;;;;;;;;;4967879;28;20223;-71
2022/09/25 12:14:21;;;;;;;2.75;0.47;;;;;;;;;;4974676;28;20230;-70
2022/09/25 12:16:56;;;;;;;2.58;0.40;;;;;;;;;;4967031;28;20267;-70
2022/09/25 12:19:47;;;;;;;1.60;0.40;;;;;;;;;;4965275;28;20510;-70
2022/09/25 12:22:15;;;;;;;2.38;0.43;;;;;;;;;;4975578;28;20550;-70
2022/09/25 12:24:58;;;;;;;0.88;0.35;;;;;;;;;;4972656;28;20704;-71
2022/09/25 12:27:40;;;;;;;1.50;0.28;;;;;;;;;;4969686;28;20181;-70
2022/09/25 12:30:11;;;;;;;1.40;0.52;;;;;;;;;;4968034;28;20248;-71
2022/09/25 12:32:40;;;;;;;1.92;0.50;;;;;;;;;;4971095;28;20173;-70
2022/09/25 12:35:09;;;;;;;0.55;0.20;;;;;;;;;;4974296;28;20176;-70
2022/09/25 12:37:41;;;;;;;2.03;0.32;;;;;;;;;;4979250;28;20180;-70
2022/09/25 12:40:27;;;;;;;2.58;0.45;;;;;;;;;;4968809;28;20291;-70
2022/09/25 12:43:10;;;;;;;0.60;0.30;;;;;;;;;;4969837;28;20196;-71
2022/09/25 12:45:36;;;;;;;1.05;0.20;;;;;;;;;;4970027;28;20280;-70
2022/09/25 12:48:39;;;;;;;0.77;0.23;;;;;;;;;;4972214;28;20268;-70
2022/09/25 12:51:05;;;;;;;0.85;0.47;;;;;;;;;;4930905;29;20545;-71
2022/09/25 12:53:39;;;;;;;2.92;0.43;;;;;;;;;;4928175;29;20201;-70
2022/09/25 12:56:13;;;;;;;1.95;0.60;;;;;;;;;;4947653;28;20204;-70
2022/09/25 12:58:43;;;;;;;0.70;0.38;;;;;;;;;;4967346;28;20271;-70
2022/09/25 13:01:20;;;;;;;1.55;0.43;;;;;;;;;;4966749;28;20184;-70
2022/09/25 13:03:58;;;;;;;0.98;0.38;;;;;;;;;;4969256;28;20181;-70
2022/09/25 13:06:46;;;;;;;0.47;0.22;;;;;;;;;;4967868;28;20230;-70
2022/09/25 13:09:17;;;;;;;2.70;0.65;;;;;;;;;;4968104;28;20240;-70
2022/09/25 13:11:46;;;;;;;2.47;1.13;;;;;;;;;;4969486;28;20204;-71
2022/09/25 13:14:35;;;;;;;1.15;0.50;;;;;;;;;;4966091;28;20184;-71
2022/09/25 13:17:01;;;;;;;2.08;0.50;;;;;;;;;;4962135;28;20414;-71
2022/09/25 13:19:27;;;;;;;2.88;0.43;;;;;;;;;;4971249;28;20215;-71
2022/09/25 13:22:06;;;;;;;1.40;0.40;;;;;;;;;;4964926;28;20208;-71
2022/09/25 13:24:42;;;;;;;0.75;0.30;;;;;;;;;;4970799;28;20180;-71
2022/09/25 13:27:10;;;;;;;0.50;0.30;;;;;;;;;;4974350;28;20258;-70
2022/09/25 13:29:37;;;;;;;2.00;0.50;;;;;;;;;;4972785;28;20242;-72
2022/09/25 13:32:08;;;;;;;1.33;0.30;;;;;;;;;;4972896;28;20200;-72
2022/09/25 13:34:37;;;;;;;1.95;0.50;;;;;;;;;;4966993;28;20305;-73
2022/09/25 13:37:04;;;;;;;0.80;0.25;;;;;;;;;;4977354;28;20172;-70
2022/09/25 13:42:26;;;;;;;0.77;0.35;;;;;;;;;;4969121;28;20191;-71
2022/09/25 13:45:05;;;;;;;1.25;0.45;;;;;;;;;;4965488;28;20560;-71
2022/09/25 13:47:31;;;;;;;1.00;0.30;;;;;;;;;;4972550;28;20188;-71
2022/09/25 13:49:58;;;;;;;1.42;0.65;;;;;;;;;;4969630;28;20200;-73
2022/09/25 13:53:16;;;;;;;1.23;0.50;;;;;;;;;;4967699;28;20239;-71
2022/09/25 13:55:41;;;;;;;0.90;0.60;;;;;;;;;;4969340;28;20188;-73
2022/09/25 13:58:15;;;;;;;2.67;0.60;;;;;;;;;;4968911;28;20279;-72
2022/09/25 14:00:54;;;;;;;1.13;0.40;;;;;;;;;;4972549;28;20187;-73
2022/09/25 14:03:31;;;;;;;0.82;0.70;;;;;;;;;;4967581;28;20657;-74
2022/09/25 14:05:57;;;;;;;1.38;0.50;;;;;;;;;;4967098;28;20210;-72
2022/09/25 14:08:23;;;;;;;0.38;0.32;;;;;;;;;;4970204;28;20688;-71
2022/09/25 14:10:52;;;;;;;1.17;0.40;;;;;;;;;;4965258;28;20245;-71
2022/09/25 14:13:22;;;;;;;0.98;0.45;;;;;;;;;;4968314;28;20183;-74
2022/09/25 14:15:49;;;;;;;2.15;0.77;;;;;;;;;;4971110;28;20165;-74
2022/09/25 14:18:16;;;;;;;0.80;0.60;;;;;;;;;;4967376;28;20180;-73
2022/09/25 14:20:43;;;;;;;1.30;0.40;;;;;;;;;;4969154;28;20278;-73
2022/09/25 14:23:35;;;;;;;1.08;0.40;;;;;;;;;;4970899;28;20196;-73
2022/09/25 14:26:01;;;;;;;1.00;0.90;;;;;;;;;;4970376;28;20218;-73
2022/09/25 14:28:26;;;;;;;1.52;0.82;;;;;;;;;;4966781;28;20318;-71
2022/09/25 14:31:11;;;;;;;1.35;0.70;;;;;;;;;;4965755;28;20196;-72
2022/09/25 14:33:41;;;;;;;1.52;0.70;;;;;;;;;;4965685;28;20179;-73
2022/09/25 14:36:10;;;;;;;0.80;0.80;;;;;;;;;;4970476;28;20196;-72
2022/09/25 14:38:35;;;;;;;1.38;0.98;;;;;;;;;;4970973;28;20207;-72
2022/09/25 14:41:17;;;;;;;0.70;0.55;;;;;;;;;;4966527;28;20184;-72
2022/09/25 14:44:02;;;;;;;0.90;0.50;;;;;;;;;;4966404;28;20173;-72
2022/09/25 14:46:28;;;;;;;1.08;0.40;;;;;;;;;;4969218;28;20678;-72
2022/09/25 14:48:55;;;;;;;1.52;0.50;;;;;;;;;;4968234;28;20230;-72
2022/09/25 14:51:20;;;;;;;0.60;0.40;;;;;;;;;;4968344;28;20200;-72
2022/09/25 14:53:57;;;;;;;3.23;0.60;;;;;;;;;;4969990;28;20726;-72
2022/09/25 14:56:23;;;;;;;0.70;0.50;;;;;;;;;;4966868;28;20434;-73
2022/09/25 14:58:50;;;;;;;0.90;0.70;;;;;;;;;;4963851;28;20277;-72
2022/09/25 15:01:23;;;;;;;2.90;0.40;;;;;;;;;;4970258;28;20323;-72
2022/09/25 15:03:49;;;;;;;1.02;0.60;;;;;;;;;;4962665;28;20187;-72
2022/09/25 15:06:27;;;;;;;1.27;0.50;;;;;;;;;;4969292;28;20185;-72
2022/09/25 15:08:53;;;;;;;1.52;0.65;;;;;;;;;;4965768;28;20196;-72
2022/09/25 15:11:19;;;;;;;1.08;0.38;;;;;;;;;;4968039;28;20204;-71
2022/09/25 15:13:45;;;;;;;1.00;0.45;;;;;;;;;;4968854;28;20609;-72
2022/09/25 15:19:01;;;;;;;1.40;0.32;;;;;;;;;;4967773;28;20634;-72
2022/09/25 15:21:30;;;;;;;0.77;0.40;;;;;;;;;;4971882;28;20220;-72
2022/09/25 15:23:57;;;;;;;1.25;0.40;;;;;;;;;;4973822;28;20186;-71